sensor_id;sensor_type;location;lat;lon;timestamp;P1;durP1;ratioP1;P2;durP2;ratioP2
12445;SDS011;6287;50.984;7.022;2023-06-10T00:02:25;5.03;;;4.57;;
12445;SDS011;6287;50.984;7.022;2023-06-10T00:04:52;5.78;;;4.95;;
12445;SDS011;6287;50.984;7.022;2023-06-10T00:07:21;6.72;;;5.40;;
12445;SDS011;6287;50.984;7.022;2023-06-10T00:09:47;5.28;;;4.78;;
12445;SDS011;6287;50.984;7.022;2023-06-10T00:12:15;4.78;;;4.38;;
12445;SDS011;6287;50.984;7.022;2023-06-10T00:14:41;5.30;;;4.80;;
12445;SDS011;6287;50.984;7.022;2023-06-10T00:17:15;5.63;;;4.80;;
12445;SDS011;6287;50.984;7.022;2023-06-10T00:19:41;6.65;;;5.05;;
12445;SDS011;6287;50.984;7.022;2023-06-10T00:22:07;5.45;;;4.80;;
12445;SDS011;6287;50.984;7.022;2023-06-10T00:24:35;8.60;;;4.95;;
12445;SDS011;6287;50.984;7.022;2023-06-10T00:27:04;5.10;;;4.70;;
12445;SDS011;6287;50.984;7.022;2023-06-10T00:29:32;6.18;;;4.93;;
12445;SDS011;6287;50.984;7.022;2023-06-10T00:32:00;5.72;;;4.72;;
12445;SDS011;6287;50.984;7.022;2023-06-10T00:34:28;5.45;;;4.75;;
12445;SDS011;6287;50.984;7.022;2023-06-10T00:36:57;6.78;;;4.95;;
12445;SDS011;6287;50.984;7.022;2023-06-10T00:39:22;5.90;;;5.30;;
12445;SDS011;6287;50.984;7.022;2023-06-10T00:41:48;5.97;;;5.00;;
12445;SDS011;6287;50.984;7.022;2023-06-10T00:44:16;5.65;;;4.82;;
12445;SDS011;6287;50.984;7.022;2023-06-10T00:46:41;6.30;;;5.30;;
12445;SDS011;6287;50.984;7.022;2023-06-10T00:49:07;5.80;;;5.30;;
12445;SDS011;6287;50.984;7.022;2023-06-10T00:51:33;6.85;;;5.60;;
12445;SDS011;6287;50.984;7.022;2023-06-10T00:54:01;5.95;;;5.30;;
12445;SDS011;6287;50.984;7.022;2023-06-10T00:56:32;7.05;;;5.35;;
12445;SDS011;6287;50.984;7.022;2023-06-10T00:59:01;7.13;;;5.75;;
12445;SDS011;6287;50.984;7.022;2023-06-10T01:01:28;5.85;;;5.28;;
12445;SDS011;6287;50.984;7.022;2023-06-10T01:03:54;7.85;;;5.10;;
12445;SDS011;6287;50.984;7.022;2023-06-10T01:08:55;6.07;;;5.55;;
12445;SDS011;6287;50.984;7.022;2023-06-10T01:11:28;6.28;;;5.68;;
12445;SDS011;6287;50.984;7.022;2023-06-10T01:14:03;5.95;;;5.35;;
12445;SDS011;6287;50.984;7.022;2023-06-10T01:16:32;6.82;;;5.35;;
12445;SDS011;6287;50.984;7.022;2023-06-10T01:19:04;6.43;;;5.82;;
12445;SDS011;6287;50.984;7.022;2023-06-10T01:21:31;5.88;;;5.30;;
12445;SDS011;6287;50.984;7.022;2023-06-10T01:24:03;6.25;;;5.65;;
12445;SDS011;6287;50.984;7.022;2023-06-10T01:26:33;8.25;;;6.50;;
12445;SDS011;6287;50.984;7.022;2023-06-10T01:29:09;8.13;;;6.10;;
12445;SDS011;6287;50.984;7.022;2023-06-10T01:31:49;6.30;;;5.53;;
12445;SDS011;6287;50.984;7.022;2023-06-10T01:34:21;6.55;;;5.80;;
12445;SDS011;6287;50.984;7.022;2023-06-10T01:36:49;6.88;;;5.97;;
12445;SDS011;6287;50.984;7.022;2023-06-10T01:39:16;6.63;;;5.93;;
12445;SDS011;6287;50.984;7.022;2023-06-10T01:41:47;7.63;;;6.15;;
12445;SDS011;6287;50.984;7.022;2023-06-10T01:44:17;6.47;;;5.88;;
12445;SDS011;6287;50.984;7.022;2023-06-10T01:46:49;10.50;;;6.57;;
12445;SDS011;6287;50.984;7.022;2023-06-10T01:49:14;7.28;;;6.05;;
12445;SDS011;6287;50.984;7.022;2023-06-10T01:51:40;8.20;;;6.13;;
12445;SDS011;6287;50.984;7.022;2023-06-10T01:54:06;7.00;;;5.93;;
12445;SDS011;6287;50.984;7.022;2023-06-10T01:56:34;6.45;;;5.75;;
12445;SDS011;6287;50.984;7.022;2023-06-10T01:58:59;6.80;;;6.05;;
12445;SDS011;6287;50.984;7.022;2023-06-10T02:01:25;6.82;;;6.05;;
12445;SDS011;6287;50.984;7.022;2023-06-10T02:03:51;6.40;;;5.80;;
12445;SDS011;6287;50.984;7.022;2023-06-10T02:06:21;6.55;;;5.78;;
12445;SDS011;6287;50.984;7.022;2023-06-10T02:08:47;6.68;;;5.97;;
12445;SDS011;6287;50.984;7.022;2023-06-10T02:11:12;6.63;;;6.03;;
12445;SDS011;6287;50.984;7.022;2023-06-10T02:13:40;7.80;;;6.22;;
12445;SDS011;6287;50.984;7.022;2023-06-10T02:16:06;7.15;;;6.32;;
12445;SDS011;6287;50.984;7.022;2023-06-10T02:18:32;6.43;;;5.68;;
12445;SDS011;6287;50.984;7.022;2023-06-10T02:21:00;6.20;;;5.60;;
12445;SDS011;6287;50.984;7.022;2023-06-10T02:23:25;8.50;;;6.45;;
12445;SDS011;6287;50.984;7.022;2023-06-10T02:25:51;6.60;;;6.00;;
12445;SDS011;6287;50.984;7.022;2023-06-10T02:28:21;7.50;;;6.75;;
12445;SDS011;6287;50.984;7.022;2023-06-10T02:30:47;7.00;;;6.20;;
12445;SDS011;6287;50.984;7.022;2023-06-10T02:33:17;6.40;;;5.80;;
12445;SDS011;6287;50.984;7.022;2023-06-10T02:35:43;9.57;;;5.95;;
12445;SDS011;6287;50.984;7.022;2023-06-10T02:38:14;6.78;;;6.18;;
12445;SDS011;6287;50.984;7.022;2023-06-10T02:40:39;7.30;;;6.60;;
12445;SDS011;6287;50.984;7.022;2023-06-10T02:43:07;8.50;;;6.53;;
12445;SDS011;6287;50.984;7.022;2023-06-10T02:45:36;6.68;;;5.97;;
12445;SDS011;6287;50.984;7.022;2023-06-10T02:48:04;7.07;;;6.38;;
12445;SDS011;6287;50.984;7.022;2023-06-10T02:50:30;7.18;;;6.13;;
12445;SDS011;6287;50.984;7.022;2023-06-10T02:52:58;7.50;;;6.80;;
12445;SDS011;6287;50.984;7.022;2023-06-10T02:55:26;7.23;;;6.53;;
12445;SDS011;6287;50.984;7.022;2023-06-10T02:57:52;7.55;;;6.22;;
12445;SDS011;6287;50.984;7.022;2023-06-10T03:00:19;8.07;;;6.80;;
12445;SDS011;6287;50.984;7.022;2023-06-10T03:02:46;8.25;;;6.30;;
12445;SDS011;6287;50.984;7.022;2023-06-10T03:05:12;8.15;;;6.85;;
12445;SDS011;6287;50.984;7.022;2023-06-10T03:07:39;7.45;;;6.38;;
12445;SDS011;6287;50.984;7.022;2023-06-10T03:10:05;7.75;;;6.47;;
12445;SDS011;6287;50.984;7.022;2023-06-10T03:12:36;6.82;;;6.13;;
12445;SDS011;6287;50.984;7.022;2023-06-10T03:15:05;7.50;;;6.80;;
12445;SDS011;6287;50.984;7.022;2023-06-10T03:17:31;8.30;;;7.17;;
12445;SDS011;6287;50.984;7.022;2023-06-10T03:19:57;7.47;;;6.60;;
12445;SDS011;6287;50.984;7.022;2023-06-10T03:22:22;7.83;;;6.40;;
12445;SDS011;6287;50.984;7.022;2023-06-10T03:24:52;7.53;;;6.78;;
12445;SDS011;6287;50.984;7.022;2023-06-10T03:27:22;9.43;;;7.25;;
12445;SDS011;6287;50.984;7.022;2023-06-10T03:29:50;8.80;;;7.10;;
12445;SDS011;6287;50.984;7.022;2023-06-10T03:32:16;8.43;;;7.30;;
12445;SDS011;6287;50.984;7.022;2023-06-10T03:34:42;7.93;;;7.17;;
12445;SDS011;6287;50.984;7.022;2023-06-10T03:37:12;9.10;;;7.27;;
12445;SDS011;6287;50.984;7.022;2023-06-10T03:39:42;7.88;;;6.90;;
12445;SDS011;6287;50.984;7.022;2023-06-10T03:42:08;7.47;;;6.67;;
12445;SDS011;6287;50.984;7.022;2023-06-10T03:44:36;7.88;;;7.07;;
12445;SDS011;6287;50.984;7.022;2023-06-10T03:47:06;7.95;;;7.22;;
12445;SDS011;6287;50.984;7.022;2023-06-10T03:49:34;7.93;;;7.07;;
12445;SDS011;6287;50.984;7.022;2023-06-10T03:52:03;8.38;;;7.55;;
12445;SDS011;6287;50.984;7.022;2023-06-10T03:54:29;7.88;;;6.93;;
12445;SDS011;6287;50.984;7.022;2023-06-10T03:56:56;8.48;;;7.45;;
12445;SDS011;6287;50.984;7.022;2023-06-10T03:59:27;7.67;;;6.83;;
12445;SDS011;6287;50.984;7.022;2023-06-10T04:01:55;8.27;;;7.45;;
12445;SDS011;6287;50.984;7.022;2023-06-10T04:04:23;9.30;;;7.78;;
12445;SDS011;6287;50.984;7.022;2023-06-10T04:06:53;9.35;;;7.55;;
12445;SDS011;6287;50.984;7.022;2023-06-10T04:09:21;8.48;;;7.57;;
12445;SDS011;6287;50.984;7.022;2023-06-10T04:11:49;9.75;;;7.60;;
12445;SDS011;6287;50.984;7.022;2023-06-10T04:14:17;7.90;;;6.82;;
12445;SDS011;6287;50.984;7.022;2023-06-10T04:16:42;9.70;;;7.35;;
12445;SDS011;6287;50.984;7.022;2023-06-10T04:19:08;8.27;;;7.47;;
12445;SDS011;6287;50.984;7.022;2023-06-10T04:21:36;8.10;;;7.35;;
12445;SDS011;6287;50.984;7.022;2023-06-10T04:24:06;11.35;;;7.88;;
12445;SDS011;6287;50.984;7.022;2023-06-10T04:26:37;8.85;;;7.40;;
12445;SDS011;6287;50.984;7.022;2023-06-10T04:29:05;7.80;;;7.00;;
12445;SDS011;6287;50.984;7.022;2023-06-10T04:31:30;9.00;;;7.50;;
12445;SDS011;6287;50.984;7.022;2023-06-10T04:33:57;8.77;;;7.15;;
12445;SDS011;6287;50.984;7.022;2023-06-10T04:36:25;9.48;;;7.40;;
12445;SDS011;6287;50.984;7.022;2023-06-10T04:38:51;8.77;;;7.75;;
12445;SDS011;6287;50.984;7.022;2023-06-10T04:41:21;8.52;;;7.60;;
12445;SDS011;6287;50.984;7.022;2023-06-10T04:43:52;7.82;;;7.07;;
12445;SDS011;6287;50.984;7.022;2023-06-10T04:46:18;8.00;;;7.18;;
12445;SDS011;6287;50.984;7.022;2023-06-10T04:48:46;8.40;;;7.50;;
12445;SDS011;6287;50.984;7.022;2023-06-10T04:51:14;9.55;;;8.05;;
12445;SDS011;6287;50.984;7.022;2023-06-10T04:53:40;8.07;;;7.28;;
12445;SDS011;6287;50.984;7.022;2023-06-10T04:56:05;7.20;;;6.53;;
12445;SDS011;6287;50.984;7.022;2023-06-10T04:58:33;8.68;;;7.13;;
12445;SDS011;6287;50.984;7.022;2023-06-10T05:01:04;8.10;;;7.28;;
12445;SDS011;6287;50.984;7.022;2023-06-10T05:03:32;11.18;;;8.30;;
12445;SDS011;6287;50.984;7.022;2023-06-10T05:06:02;9.40;;;8.38;;
12445;SDS011;6287;50.984;7.022;2023-06-10T05:08:30;10.50;;;8.07;;
12445;SDS011;6287;50.984;7.022;2023-06-10T05:10:56;9.95;;;8.10;;
12445;SDS011;6287;50.984;7.022;2023-06-10T05:13:24;11.18;;;8.68;;
12445;SDS011;6287;50.984;7.022;2023-06-10T05:15:52;9.38;;;8.45;;
12445;SDS011;6287;50.984;7.022;2023-06-10T05:18:17;9.25;;;8.27;;
12445;SDS011;6287;50.984;7.022;2023-06-10T05:20:43;10.68;;;8.50;;
12445;SDS011;6287;50.984;7.022;2023-06-10T05:23:09;9.93;;;8.80;;
12445;SDS011;6287;50.984;7.022;2023-06-10T05:25:37;9.88;;;7.85;;
12445;SDS011;6287;50.984;7.022;2023-06-10T05:28:02;8.13;;;7.32;;
12445;SDS011;6287;50.984;7.022;2023-06-10T05:30:28;10.32;;;8.18;;
12445;SDS011;6287;50.984;7.022;2023-06-10T05:32:54;9.70;;;8.00;;
12445;SDS011;6287;50.984;7.022;2023-06-10T05:35:21;8.57;;;7.78;;
12445;SDS011;6287;50.984;7.022;2023-06-10T05:37:47;9.30;;;8.40;;
12445;SDS011;6287;50.984;7.022;2023-06-10T05:40:13;9.07;;;8.13;;
12445;SDS011;6287;50.984;7.022;2023-06-10T05:42:41;9.27;;;7.95;;
12445;SDS011;6287;50.984;7.022;2023-06-10T05:45:11;9.52;;;7.65;;
12445;SDS011;6287;50.984;7.022;2023-06-10T05:47:37;9.05;;;7.55;;
12445;SDS011;6287;50.984;7.022;2023-06-10T05:50:05;8.32;;;7.18;;
12445;SDS011;6287;50.984;7.022;2023-06-10T05:52:36;7.90;;;7.13;;
12445;SDS011;6287;50.984;7.022;2023-06-10T05:55:02;9.57;;;7.30;;
12445;SDS011;6287;50.984;7.022;2023-06-10T05:57:32;9.30;;;7.57;;
12445;SDS011;6287;50.984;7.022;2023-06-10T06:00:01;8.15;;;7.35;;
12445;SDS011;6287;50.984;7.022;2023-06-10T06:02:28;9.32;;;7.68;;
12445;SDS011;6287;50.984;7.022;2023-06-10T06:04:54;8.20;;;6.28;;
12445;SDS011;6287;50.984;7.022;2023-06-10T06:07:24;7.07;;;6.45;;
12445;SDS011;6287;50.984;7.022;2023-06-10T06:09:54;8.43;;;6.72;;
12445;SDS011;6287;50.984;7.022;2023-06-10T06:12:20;7.63;;;6.15;;
12445;SDS011;6287;50.984;7.022;2023-06-10T06:14:46;6.93;;;6.32;;
12445;SDS011;6287;50.984;7.022;2023-06-10T06:17:11;8.05;;;5.88;;
12445;SDS011;6287;50.984;7.022;2023-06-10T06:19:39;7.50;;;6.28;;
12445;SDS011;6287;50.984;7.022;2023-06-10T06:22:06;7.05;;;6.03;;
12445;SDS011;6287;50.984;7.022;2023-06-10T06:24:34;8.18;;;6.18;;
12445;SDS011;6287;50.984;7.022;2023-06-10T06:27:02;6.55;;;5.57;;
12445;SDS011;6287;50.984;7.022;2023-06-10T06:29:27;6.43;;;5.78;;
12445;SDS011;6287;50.984;7.022;2023-06-10T06:31:58;5.90;;;5.28;;
12445;SDS011;6287;50.984;7.022;2023-06-10T06:34:23;6.53;;;5.82;;
12445;SDS011;6287;50.984;7.022;2023-06-10T06:36:51;5.97;;;5.38;;
12445;SDS011;6287;50.984;7.022;2023-06-10T06:39:17;6.65;;;5.50;;
12445;SDS011;6287;50.984;7.022;2023-06-10T06:41:43;5.93;;;5.13;;
12445;SDS011;6287;50.984;7.022;2023-06-10T06:44:11;7.50;;;5.90;;
12445;SDS011;6287;50.984;7.022;2023-06-10T06:46:36;6.18;;;5.53;;
12445;SDS011;6287;50.984;7.022;2023-06-10T06:49:02;6.68;;;6.07;;
12445;SDS011;6287;50.984;7.022;2023-06-10T06:51:29;5.88;;;5.20;;
12445;SDS011;6287;50.984;7.022;2023-06-10T06:53:58;5.78;;;5.28;;
12445;SDS011;6287;50.984;7.022;2023-06-10T06:56:24;7.50;;;5.60;;
12445;SDS011;6287;50.984;7.022;2023-06-10T06:58:53;6.40;;;5.22;;
12445;SDS011;6287;50.984;7.022;2023-06-10T07:01:18;5.75;;;5.15;;
12445;SDS011;6287;50.984;7.022;2023-06-10T07:03:44;5.47;;;4.97;;
12445;SDS011;6287;50.984;7.022;2023-06-10T07:06:12;7.25;;;6.05;;
12445;SDS011;6287;50.984;7.022;2023-06-10T07:08:38;4.70;;;4.30;;
12445;SDS011;6287;50.984;7.022;2023-06-10T07:11:03;4.38;;;3.97;;
12445;SDS011;6287;50.984;7.022;2023-06-10T07:13:31;4.47;;;4.07;;
12445;SDS011;6287;50.984;7.022;2023-06-10T07:15:59;4.53;;;4.13;;
12445;SDS011;6287;50.984;7.022;2023-06-10T07:18:25;4.72;;;4.10;;
12445;SDS011;6287;50.984;7.022;2023-06-10T07:20:51;5.05;;;4.03;;
12445;SDS011;6287;50.984;7.022;2023-06-10T07:23:21;4.70;;;4.30;;
12445;SDS011;6287;50.984;7.022;2023-06-10T07:25:51;4.90;;;4.45;;
12445;SDS011;6287;50.984;7.022;2023-06-10T07:28:16;4.60;;;4.20;;
12445;SDS011;6287;50.984;7.022;2023-06-10T07:30:42;4.72;;;4.30;;
12445;SDS011;6287;50.984;7.022;2023-06-10T07:33:08;4.50;;;4.10;;
12445;SDS011;6287;50.984;7.022;2023-06-10T07:35:37;4.97;;;4.07;;
12445;SDS011;6287;50.984;7.022;2023-06-10T07:38:03;4.30;;;3.90;;
12445;SDS011;6287;50.984;7.022;2023-06-10T07:40:28;4.72;;;4.28;;
12445;SDS011;6287;50.984;7.022;2023-06-10T07:42:54;5.65;;;4.90;;
12445;SDS011;6287;50.984;7.022;2023-06-10T07:45:22;4.32;;;3.92;;
12445;SDS011;6287;50.984;7.022;2023-06-10T07:47:53;5.13;;;4.32;;
12445;SDS011;6287;50.984;7.022;2023-06-10T07:50:22;4.97;;;4.50;;
12445;SDS011;6287;50.984;7.022;2023-06-10T07:52:48;4.32;;;3.95;;
12445;SDS011;6287;50.984;7.022;2023-06-10T07:55:16;4.57;;;4.18;;
12445;SDS011;6287;50.984;7.022;2023-06-10T07:57:44;5.85;;;5.25;;
12445;SDS011;6287;50.984;7.022;2023-06-10T08:00:12;4.80;;;4.32;;
12445;SDS011;6287;50.984;7.022;2023-06-10T08:02:38;4.88;;;4.38;;
12445;SDS011;6287;50.984;7.022;2023-06-10T08:05:04;4.57;;;4.20;;
12445;SDS011;6287;50.984;7.022;2023-06-10T08:07:30;7.00;;;4.30;;
12445;SDS011;6287;50.984;7.022;2023-06-10T08:09:58;4.32;;;4.03;;
12445;SDS011;6287;50.984;7.022;2023-06-10T08:12:23;4.60;;;4.20;;
12445;SDS011;6287;50.984;7.022;2023-06-10T08:14:49;5.10;;;4.40;;
12445;SDS011;6287;50.984;7.022;2023-06-10T08:17:15;4.70;;;4.20;;
12445;SDS011;6287;50.984;7.022;2023-06-10T08:19:40;5.10;;;4.57;;
12445;SDS011;6287;50.984;7.022;2023-06-10T08:22:08;4.82;;;4.43;;
12445;SDS011;6287;50.984;7.022;2023-06-10T08:24:36;5.35;;;4.60;;
12445;SDS011;6287;50.984;7.022;2023-06-10T08:27:06;4.90;;;4.38;;
12445;SDS011;6287;50.984;7.022;2023-06-10T08:29:39;4.78;;;4.38;;
12445;SDS011;6287;50.984;7.022;2023-06-10T08:32:05;5.07;;;4.13;;
12445;SDS011;6287;50.984;7.022;2023-06-10T08:34:33;4.75;;;4.35;;
12445;SDS011;6287;50.984;7.022;2023-06-10T08:37:02;4.75;;;4.35;;
12445;SDS011;6287;50.984;7.022;2023-06-10T08:39:29;5.47;;;4.72;;
12445;SDS011;6287;50.984;7.022;2023-06-10T08:42:01;5.15;;;4.70;;
12445;SDS011;6287;50.984;7.022;2023-06-10T08:44:55;5.35;;;4.63;;
12445;SDS011;6287;50.984;7.022;2023-06-10T08:47:24;4.70;;;4.30;;
12445;SDS011;6287;50.984;7.022;2023-06-10T08:50:01;6.20;;;4.30;;
12445;SDS011;6287;50.984;7.022;2023-06-10T08:52:37;5.20;;;4.53;;
12445;SDS011;6287;50.984;7.022;2023-06-10T08:57:47;5.00;;;4.50;;
12445;SDS011;6287;50.984;7.022;2023-06-10T09:00:18;4.38;;;3.97;;
12445;SDS011;6287;50.984;7.022;2023-06-10T09:02:44;4.10;;;3.80;;
12445;SDS011;6287;50.984;7.022;2023-06-10T09:05:14;4.47;;;4.15;;
12445;SDS011;6287;50.984;7.022;2023-06-10T09:07:43;4.22;;;3.90;;
12445;SDS011;6287;50.984;7.022;2023-06-10T09:10:13;6.50;;;4.70;;
12445;SDS011;6287;50.984;7.022;2023-06-10T09:12:39;4.20;;;3.90;;
12445;SDS011;6287;50.984;7.022;2023-06-10T09:15:05;4.82;;;4.30;;
12445;SDS011;6287;50.984;7.022;2023-06-10T09:17:31;4.60;;;4.22;;
12445;SDS011;6287;50.984;7.022;2023-06-10T09:19:59;4.75;;;4.20;;
12445;SDS011;6287;50.984;7.022;2023-06-10T09:22:27;5.00;;;4.18;;
12445;SDS011;6287;50.984;7.022;2023-06-10T09:25:05;3.80;;;3.47;;
12445;SDS011;6287;50.984;7.022;2023-06-10T09:27:40;5.20;;;4.43;;
12445;SDS011;6287;50.984;7.022;2023-06-10T09:30:31;4.63;;;4.22;;
12445;SDS011;6287;50.984;7.022;2023-06-10T09:32:58;4.40;;;4.03;;
12445;SDS011;6287;50.984;7.022;2023-06-10T09:35:29;4.20;;;3.90;;
12445;SDS011;6287;50.984;7.022;2023-06-10T09:37:56;4.80;;;4.40;;
12445;SDS011;6287;50.984;7.022;2023-06-10T09:40:23;4.78;;;4.00;;
12445;SDS011;6287;50.984;7.022;2023-06-10T09:42:58;4.25;;;3.95;;
12445;SDS011;6287;50.984;7.022;2023-06-10T09:45:31;5.10;;;4.28;;
12445;SDS011;6287;50.984;7.022;2023-06-10T09:48:00;11.05;;;4.20;;
12445;SDS011;6287;50.984;7.022;2023-06-10T09:50:25;4.57;;;3.63;;
12445;SDS011;6287;50.984;7.022;2023-06-10T09:52:51;4.47;;;4.07;;
12445;SDS011;6287;50.984;7.022;2023-06-10T09:55:17;4.80;;;4.40;;
12445;SDS011;6287;50.984;7.022;2023-06-10T09:57:43;4.97;;;4.47;;
12445;SDS011;6287;50.984;7.022;2023-06-10T10:00:13;5.15;;;4.10;;
12445;SDS011;6287;50.984;7.022;2023-06-10T10:02:44;4.60;;;4.18;;
12445;SDS011;6287;50.984;7.022;2023-06-10T10:05:15;4.72;;;4.22;;
12445;SDS011;6287;50.984;7.022;2023-06-10T10:07:47;5.15;;;4.65;;
12445;SDS011;6287;50.984;7.022;2023-06-10T10:10:13;4.60;;;4.15;;
12445;SDS011;6287;50.984;7.022;2023-06-10T10:12:45;4.45;;;4.13;;
12445;SDS011;6287;50.984;7.022;2023-06-10T10:15:12;4.18;;;3.88;;
12445;SDS011;6287;50.984;7.022;2023-06-10T10:17:46;4.90;;;4.40;;
12445;SDS011;6287;50.984;7.022;2023-06-10T10:20:22;4.50;;;4.10;;
12445;SDS011;6287;50.984;7.022;2023-06-10T10:22:57;4.30;;;3.90;;
12445;SDS011;6287;50.984;7.022;2023-06-10T10:25:23;4.20;;;3.80;;
12445;SDS011;6287;50.984;7.022;2023-06-10T10:28:13;4.28;;;3.88;;
12445;SDS011;6287;50.984;7.022;2023-06-10T10:30:42;4.03;;;3.83;;
12445;SDS011;6287;50.984;7.022;2023-06-10T10:33:12;4.45;;;3.90;;
12445;SDS011;6287;50.984;7.022;2023-06-10T10:35:41;4.75;;;4.00;;
12445;SDS011;6287;50.984;7.022;2023-06-10T10:38:08;4.20;;;3.80;;
12445;SDS011;6287;50.984;7.022;2023-06-10T10:40:35;4.25;;;3.78;;
12445;SDS011;6287;50.984;7.022;2023-06-10T10:43:02;4.25;;;3.85;;
12445;SDS011;6287;50.984;7.022;2023-06-10T10:45:28;4.28;;;3.83;;
12445;SDS011;6287;50.984;7.022;2023-06-10T10:47:56;4.28;;;3.97;;
12445;SDS011;6287;50.984;7.022;2023-06-10T10:50:29;4.82;;;3.95;;
12445;SDS011;6287;50.984;7.022;2023-06-10T10:52:58;4.13;;;3.83;;
12445;SDS011;6287;50.984;7.022;2023-06-10T10:55:26;4.35;;;3.95;;
12445;SDS011;6287;50.984;7.022;2023-06-10T10:57:58;3.80;;;3.50;;
12445;SDS011;6287;50.984;7.022;2023-06-10T11:00:35;7.40;;;4.00;;
12445;SDS011;6287;50.984;7.022;2023-06-10T11:03:13;3.88;;;3.58;;
12445;SDS011;6287;50.984;7.022;2023-06-10T11:08:14;5.65;;;3.55;;
12445;SDS011;6287;50.984;7.022;2023-06-10T11:11:02;3.85;;;3.55;;
12445;SDS011;6287;50.984;7.022;2023-06-10T11:13:57;4.25;;;3.85;;
12445;SDS011;6287;50.984;7.022;2023-06-10T11:16:26;4.03;;;3.40;;
12445;SDS011;6287;50.984;7.022;2023-06-10T11:18:53;3.58;;;3.28;;
12445;SDS011;6287;50.984;7.022;2023-06-10T11:21:20;4.70;;;3.78;;
12445;SDS011;6287;50.984;7.022;2023-06-10T11:23:48;3.67;;;3.38;;
12445;SDS011;6287;50.984;7.022;2023-06-10T11:29:05;5.38;;;3.70;;
12445;SDS011;6287;50.984;7.022;2023-06-10T11:34:06;3.83;;;3.53;;
12445;SDS011;6287;50.984;7.022;2023-06-10T11:36:39;4.22;;;3.58;;
12445;SDS011;6287;50.984;7.022;2023-06-10T11:39:10;4.13;;;3.42;;
12445;SDS011;6287;50.984;7.022;2023-06-10T11:41:39;5.28;;;4.28;;
12445;SDS011;6287;50.984;7.022;2023-06-10T11:44:11;6.50;;;3.80;;
12445;SDS011;6287;50.984;7.022;2023-06-10T11:46:40;4.40;;;4.00;;
12445;SDS011;6287;50.984;7.022;2023-06-10T11:49:07;4.38;;;4.07;;
12445;SDS011;6287;50.984;7.022;2023-06-10T11:51:36;6.05;;;4.35;;
12445;SDS011;6287;50.984;7.022;2023-06-10T11:54:06;4.22;;;3.85;;
12445;SDS011;6287;50.984;7.022;2023-06-10T11:56:33;4.70;;;3.97;;
12445;SDS011;6287;50.984;7.022;2023-06-10T11:59:00;4.40;;;4.05;;
12445;SDS011;6287;50.984;7.022;2023-06-10T12:01:31;4.57;;;4.18;;
12445;SDS011;6287;50.984;7.022;2023-06-10T12:09:05;5.00;;;4.30;;
12445;SDS011;6287;50.984;7.022;2023-06-10T12:11:32;5.03;;;4.30;;
12445;SDS011;6287;50.984;7.022;2023-06-10T12:13:58;4.05;;;3.75;;
12445;SDS011;6287;50.984;7.022;2023-06-10T12:16:26;3.88;;;3.58;;
12445;SDS011;6287;50.984;7.022;2023-06-10T12:19:00;4.10;;;3.80;;
12445;SDS011;6287;50.984;7.022;2023-06-10T12:21:31;4.05;;;3.75;;
12445;SDS011;6287;50.984;7.022;2023-06-10T12:26:37;4.30;;;3.90;;
12445;SDS011;6287;50.984;7.022;2023-06-10T12:29:20;4.18;;;3.80;;
12445;SDS011;6287;50.984;7.022;2023-06-10T12:31:57;3.53;;;3.22;;
12445;SDS011;6287;50.984;7.022;2023-06-10T12:34:32;3.72;;;3.42;;
12445;SDS011;6287;50.984;7.022;2023-06-10T12:37:04;3.80;;;3.50;;
12445;SDS011;6287;50.984;7.022;2023-06-10T12:39:32;4.00;;;3.70;;
12445;SDS011;6287;50.984;7.022;2023-06-10T12:42:02;3.38;;;3.17;;
12445;SDS011;6287;50.984;7.022;2023-06-10T12:44:34;3.80;;;3.40;;
12445;SDS011;6287;50.984;7.022;2023-06-10T12:47:07;3.30;;;3.10;;
12445;SDS011;6287;50.984;7.022;2023-06-10T12:49:34;3.22;;;3.03;;
12445;SDS011;6287;50.984;7.022;2023-06-10T12:52:00;3.30;;;3.10;;
12445;SDS011;6287;50.984;7.022;2023-06-10T12:54:26;3.67;;;3.38;;
12445;SDS011;6287;50.984;7.022;2023-06-10T12:56:54;3.63;;;3.33;;
12445;SDS011;6287;50.984;7.022;2023-06-10T12:59:22;3.53;;;3.20;;
12445;SDS011;6287;50.984;7.022;2023-06-10T13:01:53;3.42;;;3.13;;
12445;SDS011;6287;50.984;7.022;2023-06-10T13:04:19;3.33;;;3.13;;
12445;SDS011;6287;50.984;7.022;2023-06-10T13:06:48;3.28;;;3.00;;
12445;SDS011;6287;50.984;7.022;2023-06-10T13:09:14;4.85;;;3.50;;
12445;SDS011;6287;50.984;7.022;2023-06-10T13:11:40;3.58;;;3.25;;
12445;SDS011;6287;50.984;7.022;2023-06-10T13:14:10;3.60;;;3.30;;
12445;SDS011;6287;50.984;7.022;2023-06-10T13:16:35;3.53;;;3.33;;
12445;SDS011;6287;50.984;7.022;2023-06-10T13:19:04;3.85;;;3.55;;
12445;SDS011;6287;50.984;7.022;2023-06-10T13:21:34;3.70;;;3.40;;
12445;SDS011;6287;50.984;7.022;2023-06-10T13:24:00;3.88;;;3.50;;
12445;SDS011;6287;50.984;7.022;2023-06-10T13:26:26;3.38;;;3.00;;
12445;SDS011;6287;50.984;7.022;2023-06-10T13:28:54;3.40;;;3.10;;
12445;SDS011;6287;50.984;7.022;2023-06-10T13:31:20;3.22;;;2.90;;
12445;SDS011;6287;50.984;7.022;2023-06-10T13:33:46;2.80;;;2.60;;
12445;SDS011;6287;50.984;7.022;2023-06-10T13:36:14;2.95;;;2.75;;
12445;SDS011;6287;50.984;7.022;2023-06-10T13:38:40;3.05;;;2.85;;
12445;SDS011;6287;50.984;7.022;2023-06-10T13:41:05;3.03;;;2.83;;
12445;SDS011;6287;50.984;7.022;2023-06-10T13:43:33;2.80;;;2.60;;
12445;SDS011;6287;50.984;7.022;2023-06-10T13:45:59;2.90;;;2.70;;
12445;SDS011;6287;50.984;7.022;2023-06-10T13:48:27;3.65;;;3.25;;
12445;SDS011;6287;50.984;7.022;2023-06-10T13:50:53;6.18;;;3.08;;
12445;SDS011;6287;50.984;7.022;2023-06-10T13:53:21;3.42;;;3.13;;
12445;SDS011;6287;50.984;7.022;2023-06-10T13:55:46;3.30;;;3.10;;
12445;SDS011;6287;50.984;7.022;2023-06-10T13:58:14;3.20;;;2.90;;
12445;SDS011;6287;50.984;7.022;2023-06-10T14:00:40;3.15;;;2.95;;
12445;SDS011;6287;50.984;7.022;2023-06-10T14:03:08;3.20;;;3.00;;
12445;SDS011;6287;50.984;7.022;2023-06-10T14:05:38;3.35;;;3.05;;
12445;SDS011;6287;50.984;7.022;2023-06-10T14:08:06;3.08;;;2.80;;
12445;SDS011;6287;50.984;7.022;2023-06-10T14:10:34;3.83;;;2.88;;
12445;SDS011;6287;50.984;7.022;2023-06-10T14:13:00;3.10;;;2.83;;
12445;SDS011;6287;50.984;7.022;2023-06-10T14:15:28;3.63;;;3.05;;
12445;SDS011;6287;50.984;7.022;2023-06-10T14:17:53;3.00;;;2.80;;
12445;SDS011;6287;50.984;7.022;2023-06-10T14:20:21;3.30;;;3.00;;
12445;SDS011;6287;50.984;7.022;2023-06-10T14:22:47;3.03;;;2.80;;
12445;SDS011;6287;50.984;7.022;2023-06-10T14:25:14;3.88;;;3.58;;
12445;SDS011;6287;50.984;7.022;2023-06-10T14:27:42;3.38;;;3.10;;
12445;SDS011;6287;50.984;7.022;2023-06-10T14:30:12;3.30;;;3.05;;
12445;SDS011;6287;50.984;7.022;2023-06-10T14:32:38;3.30;;;3.00;;
12445;SDS011;6287;50.984;7.022;2023-06-10T14:35:03;3.42;;;3.10;;
12445;SDS011;6287;50.984;7.022;2023-06-10T14:37:29;3.50;;;3.20;;
12445;SDS011;6287;50.984;7.022;2023-06-10T14:39:57;3.47;;;3.17;;
12445;SDS011;6287;50.984;7.022;2023-06-10T14:42:25;2.92;;;2.72;;
12445;SDS011;6287;50.984;7.022;2023-06-10T14:44:50;3.58;;;3.28;;
12445;SDS011;6287;50.984;7.022;2023-06-10T14:47:18;3.05;;;2.90;;
12445;SDS011;6287;50.984;7.022;2023-06-10T14:49:46;3.63;;;3.22;;
12445;SDS011;6287;50.984;7.022;2023-06-10T14:52:11;3.00;;;2.80;;
12445;SDS011;6287;50.984;7.022;2023-06-10T14:54:37;3.35;;;3.00;;
12445;SDS011;6287;50.984;7.022;2023-06-10T14:57:03;3.22;;;2.92;;
12445;SDS011;6287;50.984;7.022;2023-06-10T14:59:31;3.72;;;3.25;;
12445;SDS011;6287;50.984;7.022;2023-06-10T15:01:59;3.83;;;2.90;;
12445;SDS011;6287;50.984;7.022;2023-06-10T15:04:30;3.33;;;2.97;;
12445;SDS011;6287;50.984;7.022;2023-06-10T15:06:55;4.35;;;2.97;;
12445;SDS011;6287;50.984;7.022;2023-06-10T15:09:26;3.25;;;3.05;;
12445;SDS011;6287;50.984;7.022;2023-06-10T15:11:57;3.30;;;3.03;;
12445;SDS011;6287;50.984;7.022;2023-06-10T15:14:24;3.35;;;3.05;;
12445;SDS011;6287;50.984;7.022;2023-06-10T15:16:50;3.78;;;3.22;;
12445;SDS011;6287;50.984;7.022;2023-06-10T15:19:18;3.42;;;3.13;;
12445;SDS011;6287;50.984;7.022;2023-06-10T15:21:46;3.28;;;3.03;;
12445;SDS011;6287;50.984;7.022;2023-06-10T15:24:12;3.90;;;3.60;;
12445;SDS011;6287;50.984;7.022;2023-06-10T15:26:40;2.92;;;2.72;;
12445;SDS011;6287;50.984;7.022;2023-06-10T15:29:05;3.40;;;3.10;;